createdAt,value
2023-06-16T00:01:40.743Z,99509.42
2023-06-16T00:04:09.923Z,99504.69
2023-06-16T00:06:38.323Z,99501.23
2023-06-16T00:09:05.773Z,99498.00
2023-06-16T00:11:34.367Z,99499.71
2023-06-16T00:14:01.804Z,99496.56
2023-06-16T00:16:29.266Z,99496.23
2023-06-16T00:18:59.684Z,99496.16
2023-06-16T00:21:28.644Z,99498.30
2023-06-16T00:23:56.649Z,99497.64
2023-06-16T00:26:24.762Z,99494.26
2023-06-16T00:28:52.301Z,99492.70
2023-06-16T00:31:19.944Z,99492.36
2023-06-16T00:33:47.965Z,99489.38
2023-06-16T00:36:17.149Z,99486.42
2023-06-16T00:38:44.688Z,99487.38
2023-06-16T00:41:12.317Z,99485.27
2023-06-16T00:43:39.686Z,99482.58
2023-06-16T00:46:11.203Z,99484.27
2023-06-16T00:48:38.645Z,99481.10
2023-06-16T00:51:06.438Z,99477.27
2023-06-16T00:53:33.984Z,99477.54
2023-06-16T00:56:01.529Z,99478.34
2023-06-16T00:58:29.790Z,99475.17
2023-06-16T01:00:57.337Z,99477.09
2023-06-16T01:03:24.843Z,99478.52
2023-06-16T01:05:57.549Z,99480.80
2023-06-16T01:08:45.899Z,99478.55
2023-06-16T01:11:51.926Z,99474.55
2023-06-16T01:14:44.816Z,99476.33
2023-06-16T01:17:13.227Z,99479.16
2023-06-16T01:19:51.365Z,99478.02
2023-06-16T01:22:48.311Z,99477.84
2023-06-16T01:25:16.650Z,99477.30
2023-06-16T01:27:49.048Z,99481.44
2023-06-16T01:30:17.040Z,99477.31
2023-06-16T01:32:45.318Z,99474.33
2023-06-16T01:35:13.604Z,99476.98
2023-06-16T01:37:41.102Z,99480.15
2023-06-16T01:40:09.340Z,99478.32
2023-06-16T01:42:36.815Z,99483.02
2023-06-16T01:45:04.852Z,99480.96
2023-06-16T01:47:32.430Z,99482.29
2023-06-16T01:50:00.189Z,99481.20
2023-06-16T01:52:27.723Z,99480.14
2023-06-16T01:54:55.177Z,99480.20
2023-06-16T01:57:22.672Z,99480.14
2023-06-16T02:00:04.466Z,99482.00
2023-06-16T02:02:44.682Z,99480.27
2023-06-16T02:05:12.839Z,99479.60
2023-06-16T02:07:42.365Z,99475.44
2023-06-16T02:10:11.396Z,99474.03
2023-06-16T02:12:38.912Z,99473.85
2023-06-16T02:15:08.452Z,99469.81
2023-06-16T02:17:35.929Z,99470.81
2023-06-16T02:20:07.157Z,99470.59
2023-06-16T02:22:35.958Z,99467.19
2023-06-16T02:25:03.723Z,99470.89
2023-06-16T02:27:31.416Z,99469.73
2023-06-16T02:29:59.175Z,99463.70
2023-06-16T02:32:28.266Z,99463.01
2023-06-16T02:34:57.482Z,99466.22
2023-06-16T02:37:26.899Z,99470.04
2023-06-16T02:39:56.953Z,99472.29
2023-06-16T02:42:24.509Z,99468.81
2023-06-16T02:44:52.019Z,99469.17
2023-06-16T02:47:19.719Z,99473.58
2023-06-16T02:49:47.822Z,99474.80
2023-06-16T02:52:15.368Z,99470.98
2023-06-16T02:54:43.523Z,99472.63
2023-06-16T02:57:14.783Z,99474.62
2023-06-16T02:59:46.662Z,99478.48
2023-06-16T03:02:14.156Z,99477.50
2023-06-16T03:05:02.492Z,99481.23
2023-06-16T03:07:35.527Z,99478.88
2023-06-16T03:10:04.378Z,99481.41
2023-06-16T03:12:41.798Z,99484.36
2023-06-16T03:15:10.928Z,99482.48
2023-06-16T03:17:39.214Z,99484.77
2023-06-16T03:20:08.331Z,99485.92
2023-06-16T03:22:45.763Z,99488.29
2023-06-16T03:25:13.598Z,99484.61
2023-06-16T03:27:45.206Z,99481.39
2023-06-16T03:30:17.205Z,99478.41
2023-06-16T03:32:53.889Z,99478.06
2023-06-16T03:35:21.693Z,99479.65
2023-06-16T03:37:49.260Z,99480.42
2023-06-16T03:40:19.438Z,99486.80
2023-06-16T03:42:48.009Z,99486.08
2023-06-16T03:45:16.199Z,99485.71
2023-06-16T03:47:44.139Z,99489.23
2023-06-16T03:50:12.542Z,99489.27
2023-06-16T03:52:42.502Z,99489.48
2023-06-16T03:55:10.289Z,99488.56
2023-06-16T03:57:38.335Z,99488.51
2023-06-16T04:00:10.506Z,99492.67
2023-06-16T04:02:49.641Z,99497.26
2023-06-16T04:05:25.975Z,99493.41
2023-06-16T04:07:58.947Z,99490.08
2023-06-16T04:10:26.452Z,99489.96
2023-06-16T04:12:55.339Z,99488.11
2023-06-16T04:15:25.656Z,99488.02
2023-06-16T04:17:53.794Z,99492.13
2023-06-16T04:20:22.922Z,99488.09
2023-06-16T04:22:50.898Z,99493.41
2023-06-16T04:25:19.464Z,99492.20
2023-06-16T04:27:51.135Z,99488.74
2023-06-16T04:30:23.588Z,99491.21
2023-06-16T04:32:52.002Z,99489.58
2023-06-16T04:35:22.798Z,99487.05
2023-06-16T04:37:50.335Z,99486.41
2023-06-16T04:40:18.609Z,99488.20
2023-06-16T04:42:48.517Z,99486.41
2023-06-16T04:45:16.912Z,99485.45
2023-06-16T04:47:46.229Z,99488.10
2023-06-16T04:50:14.988Z,99495.92
2023-06-16T04:52:42.571Z,99495.52
2023-06-16T04:55:10.270Z,99500.29
2023-06-16T04:59:33.343Z,99498.34
2023-06-16T05:02:00.727Z,99500.20
2023-06-16T05:04:28.308Z,99501.84
2023-06-16T05:06:55.108Z,99497.44
2023-06-16T05:09:21.972Z,99498.41
2023-06-16T05:11:49.237Z,99497.91
2023-06-16T05:14:16.323Z,99500.70
2023-06-16T05:16:43.462Z,99502.19
2023-06-16T05:19:10.846Z,99500.23
2023-06-16T05:21:43.392Z,99504.27
2023-06-16T05:24:10.967Z,99498.96
2023-06-16T05:26:38.796Z,99499.09
2023-06-16T05:29:06.039Z,99500.00
2023-06-16T05:31:35.536Z,99500.20
2023-06-16T05:34:02.522Z,99497.41
2023-06-16T05:36:32.081Z,99501.39
2023-06-16T05:38:58.991Z,99505.58
2023-06-16T05:41:31.282Z,99508.53
2023-06-16T05:43:58.369Z,99505.74
2023-06-16T05:46:25.366Z,99503.21
2023-06-16T05:48:52.763Z,99504.98
2023-06-16T05:51:19.650Z,99507.36
2023-06-16T05:53:46.624Z,99505.80
2023-06-16T05:56:13.544Z,99507.14
2023-06-16T05:58:41.195Z,99509.92
2023-06-16T06:01:07.996Z,99513.55
2023-06-16T06:03:36.546Z,99508.84
2023-06-16T06:06:05.688Z,99506.12
2023-06-16T06:08:32.714Z,99510.32
2023-06-16T06:11:02.595Z,99510.40
2023-06-16T06:13:29.661Z,99513.58
2023-06-16T06:15:56.878Z,99514.14
2023-06-16T06:18:23.822Z,99512.94
2023-06-16T06:20:52.066Z,99512.46
2023-06-16T06:23:19.024Z,99510.17
2023-06-16T06:25:46.536Z,99511.98
2023-06-16T06:28:16.326Z,99509.02
2023-06-16T06:30:42.881Z,99509.09
2023-06-16T06:33:09.588Z,99508.94
2023-06-16T06:35:36.697Z,99506.14
2023-06-16T06:38:05.450Z,99508.48
2023-06-16T06:40:33.161Z,99503.82
2023-06-16T06:43:00.875Z,99510.73
2023-06-16T06:45:38.313Z,99505.10
2023-06-16T06:48:05.350Z,99503.58
2023-06-16T06:50:32.763Z,99495.80
2023-06-16T06:52:59.433Z,99499.83
2023-06-16T06:55:26.051Z,99495.21
2023-06-16T06:57:52.888Z,99496.52
2023-06-16T07:00:19.746Z,99495.67
2023-06-16T07:02:47.970Z,99494.08
2023-06-16T07:05:15.189Z,99489.30
2023-06-16T07:07:42.029Z,99484.67
2023-06-16T07:10:11.074Z,99483.91
2023-06-16T07:12:37.918Z,99487.06
2023-06-16T07:15:05.115Z,99488.32
2023-06-16T07:17:34.639Z,99486.52
2023-06-16T07:20:01.712Z,99485.48
2023-06-16T07:22:28.794Z,99483.39
2023-06-16T07:24:55.569Z,99484.30
2023-06-16T07:27:22.920Z,99484.23
2023-06-16T07:29:49.534Z,99481.30
2023-06-16T07:32:16.052Z,99481.13
2023-06-16T07:34:42.820Z,99481.67
2023-06-16T07:37:09.487Z,99482.27
2023-06-16T07:39:36.789Z,99477.89
2023-06-16T07:42:03.984Z,99478.03
2023-06-16T07:44:31.351Z,99481.34
2023-06-16T07:47:10.475Z,99476.08
2023-06-16T07:49:38.301Z,99480.00
2023-06-16T07:52:05.147Z,99479.41
2023-06-16T07:54:32.380Z,99483.70
2023-06-16T07:56:59.248Z,99480.09
2023-06-16T07:59:27.292Z,99479.87
2023-06-16T08:01:54.747Z,99483.11
2023-06-16T08:04:21.632Z,99477.33
2023-06-16T08:06:48.791Z,99473.67
2023-06-16T08:09:16.134Z,99471.67
2023-06-16T08:11:43.307Z,99471.52
2023-06-16T08:14:10.324Z,99472.63
2023-06-16T08:16:37.097Z,99472.64
2023-06-16T08:19:03.625Z,99480.76
2023-06-16T08:21:30.548Z,99480.48
2023-06-16T08:23:58.025Z,99482.13
2023-06-16T08:26:24.726Z,99483.23
2023-06-16T08:28:56.327Z,99482.12
2023-06-16T08:31:23.047Z,99484.42
2023-06-16T08:33:55.334Z,99484.50
2023-06-16T08:36:24.001Z,99484.42
2023-06-16T08:38:53.675Z,99481.45
2023-06-16T08:41:20.556Z,99479.88
2023-06-16T08:43:51.664Z,99477.41
2023-06-16T08:46:18.804Z,99475.55
2023-06-16T08:48:46.084Z,99470.70
2023-06-16T08:51:14.751Z,99469.13
2023-06-16T08:53:41.890Z,99471.86
2023-06-16T08:56:09.700Z,99474.44
2023-06-16T08:58:37.860Z,99469.75
2023-06-16T09:01:07.362Z,99464.64
2023-06-16T09:03:35.559Z,99460.59
2023-06-16T09:06:02.948Z,99466.20
2023-06-16T09:08:30.425Z,99461.91
2023-06-16T09:10:57.453Z,99457.73
2023-06-16T09:13:27.571Z,99458.85
2023-06-16T09:15:57.620Z,99461.02
2023-06-16T09:18:25.502Z,99467.02
2023-06-16T09:20:53.525Z,99459.06
2023-06-16T09:23:30.275Z,99459.91
2023-06-16T09:25:57.063Z,99459.81
2023-06-16T09:28:34.994Z,99458.16
2023-06-16T09:31:11.699Z,99453.28
2023-06-16T09:33:40.093Z,99449.56
2023-06-16T09:36:08.181Z,99450.09
2023-06-16T09:38:38.664Z,99451.78
2023-06-16T09:41:09.699Z,99448.88
2023-06-16T09:43:40.364Z,99435.88
2023-06-16T09:46:10.232Z,99434.85
2023-06-16T09:48:48.096Z,99437.01
2023-06-16T09:51:18.621Z,99435.58
2023-06-16T09:53:46.375Z,99427.00
2023-06-16T09:56:17.018Z,99424.65
2023-06-16T09:58:44.927Z,99422.77
2023-06-16T10:01:13.961Z,99424.36
2023-06-16T10:03:42.213Z,99418.70
2023-06-16T10:06:15.124Z,99421.39
2023-06-16T10:08:41.829Z,99424.61
2023-06-16T10:11:10.920Z,99422.13
2023-06-16T10:13:38.745Z,99420.95
2023-06-16T10:16:06.327Z,99415.16
2023-06-16T10:18:33.028Z,99410.57
2023-06-16T10:21:00.038Z,99404.41
2023-06-16T10:23:26.855Z,99409.59
2023-06-16T10:25:53.343Z,99408.21
2023-06-16T10:28:20.854Z,99405.46
2023-06-16T10:30:49.101Z,99403.72
2023-06-16T10:33:29.149Z,99400.71
2023-06-16T10:36:11.430Z,99401.89
2023-06-16T10:38:43.003Z,99397.05
2023-06-16T10:41:15.321Z,99386.20
2023-06-16T10:43:42.280Z,99391.21
2023-06-16T10:46:16.839Z,99388.26
2023-06-16T10:48:57.409Z,99388.55
2023-06-16T10:51:41.549Z,99384.80
2023-06-16T10:54:09.028Z,99381.10
2023-06-16T10:57:10.602Z,99380.85
2023-06-16T10:59:51.639Z,99373.99
2023-06-16T11:02:19.570Z,99375.48
2023-06-16T11:05:09.374Z,99369.92
2023-06-16T11:08:06.932Z,99363.61
2023-06-16T11:10:52.747Z,99360.80
2023-06-16T11:13:32.657Z,99360.02
2023-06-16T11:16:00.466Z,99355.84
2023-06-16T11:18:28.250Z,99356.70
2023-06-16T11:20:58.870Z,99353.64
2023-06-16T11:23:25.834Z,99348.49
2023-06-16T11:25:53.493Z,99350.86
2023-06-16T11:28:21.453Z,99354.28
2023-06-16T11:30:49.147Z,99357.13
2023-06-16T11:33:16.773Z,99352.41
2023-06-16T11:35:43.676Z,99347.41
2023-06-16T11:38:10.809Z,99348.15
2023-06-16T11:40:38.144Z,99351.73
2023-06-16T11:43:08.162Z,99346.70
2023-06-16T11:45:38.293Z,99340.59
2023-06-16T11:48:09.203Z,99340.90
2023-06-16T11:50:36.396Z,99338.11
2023-06-16T11:53:03.184Z,99335.77
2023-06-16T11:55:30.554Z,99337.86
2023-06-16T11:58:00.486Z,99334.51
2023-06-16T12:00:27.824Z,99334.40
2023-06-16T12:02:54.722Z,99328.18
2023-06-16T12:05:24.777Z,99326.55
2023-06-16T12:07:51.812Z,99329.37
2023-06-16T12:10:18.758Z,99328.48
2023-06-16T12:12:46.584Z,99326.11
2023-06-16T12:15:17.667Z,99322.08
2023-06-16T12:17:45.640Z,99316.62
2023-06-16T12:20:13.286Z,99312.83
2023-06-16T12:22:41.238Z,99310.96
2023-06-16T12:25:15.630Z,99311.55
2023-06-16T12:27:49.835Z,99308.92
2023-06-16T12:30:16.881Z,99309.48
2023-06-16T12:32:45.495Z,99304.98
2023-06-16T12:35:12.769Z,99303.17
2023-06-16T12:37:40.641Z,99299.29
2023-06-16T12:40:11.472Z,99297.93
2023-06-16T12:42:38.426Z,99295.35
2023-06-16T12:45:05.942Z,99295.20
2023-06-16T12:47:33.711Z,99291.67
2023-06-16T12:50:02.974Z,99288.46
2023-06-16T12:52:30.265Z,99285.08
2023-06-16T12:54:58.576Z,99284.96
2023-06-16T12:57:26.325Z,99282.92
2023-06-16T12:59:53.351Z,99278.88
2023-06-16T13:02:21.492Z,99277.22
2023-06-16T13:04:48.478Z,99274.68
2023-06-16T13:07:15.499Z,99277.33
2023-06-16T13:09:42.959Z,99277.77
2023-06-16T13:12:10.375Z,99272.95
2023-06-16T13:14:37.630Z,99268.73
2023-06-16T13:17:05.179Z,99264.87
2023-06-16T13:19:32.808Z,99265.64
2023-06-16T13:22:02.371Z,99265.58
2023-06-16T13:24:30.535Z,99261.73
2023-06-16T13:26:57.643Z,99266.52
2023-06-16T13:29:27.323Z,99262.42
2023-06-16T13:31:54.095Z,99258.41
2023-06-16T13:34:20.984Z,99259.48
2023-06-16T13:36:47.843Z,99259.62
2023-06-16T13:39:15.210Z,99258.48
2023-06-16T13:41:42.215Z,99262.08
2023-06-16T13:44:10.166Z,99257.92
2023-06-16T13:46:37.118Z,99258.60
2023-06-16T13:49:03.945Z,99260.32
2023-06-16T13:51:31.260Z,99260.38
2023-06-16T13:53:58.076Z,99258.03
2023-06-16T13:56:24.627Z,99263.02
2023-06-16T13:58:51.283Z,99260.25
2023-06-16T14:01:18.308Z,99262.20
2023-06-16T14:03:45.651Z,99260.63
2023-06-16T14:06:14.505Z,99262.56
2023-06-16T14:08:41.609Z,99261.95
2023-06-16T14:11:08.354Z,99254.96
2023-06-16T14:13:35.460Z,99253.34
2023-06-16T14:16:03.770Z,99255.06
2023-06-16T14:18:30.823Z,99251.18
2023-06-16T14:20:57.636Z,99256.20
2023-06-16T14:23:24.387Z,99252.42
2023-06-16T14:25:51.303Z,99254.05
2023-06-16T14:28:18.012Z,99251.20
2023-06-16T14:30:44.740Z,99251.79
2023-06-16T14:33:12.446Z,99252.48
2023-06-16T14:35:40.881Z,99251.48
2023-06-16T14:38:07.969Z,99246.83
2023-06-16T14:40:35.834Z,99244.25
2023-06-16T14:43:02.554Z,99238.78
2023-06-16T14:45:30.706Z,99236.84
2023-06-16T14:47:57.547Z,99234.77
2023-06-16T14:50:24.554Z,99228.45
2023-06-16T14:52:51.781Z,99227.13
2023-06-16T14:55:18.857Z,99222.98
2023-06-16T14:57:45.760Z,99224.17
2023-06-16T15:00:13.328Z,99221.89
2023-06-16T15:02:40.706Z,99221.20
2023-06-16T15:05:08.725Z,99218.76
2023-06-16T15:07:37.423Z,99217.73
2023-06-16T15:10:04.928Z,99216.06
2023-06-16T15:12:32.561Z,99219.38
2023-06-16T15:14:59.336Z,99217.67
2023-06-16T15:17:26.245Z,99221.15
2023-06-16T15:19:53.275Z,99218.81
2023-06-16T15:22:20.278Z,99220.63
2023-06-16T15:24:47.016Z,99218.25
2023-06-16T15:27:13.935Z,99222.86
2023-06-16T15:29:41.407Z,99223.44
2023-06-16T15:32:10.925Z,99223.80
2023-06-16T15:34:38.310Z,99222.73
2023-06-16T15:37:06.304Z,99225.70
2023-06-16T15:39:34.866Z,99223.42
2023-06-16T15:42:03.670Z,99224.96
2023-06-16T15:44:30.412Z,99224.80
2023-06-16T15:46:57.629Z,99228.25
2023-06-16T15:49:25.297Z,99228.34
2023-06-16T15:51:52.714Z,99229.58
2023-06-16T15:54:20.142Z,99230.86
2023-06-16T15:56:46.792Z,99230.55
2023-06-16T15:59:13.480Z,99236.55
2023-06-16T16:01:41.684Z,99241.88
2023-06-16T16:04:09.421Z,99243.16
2023-06-16T16:06:39.013Z,99246.92
2023-06-16T16:09:09.746Z,99244.02
2023-06-16T16:11:41.073Z,99246.02
2023-06-16T16:14:08.231Z,99245.27
2023-06-16T16:16:35.367Z,99242.21
2023-06-16T16:19:02.181Z,99244.23
2023-06-16T16:21:29.125Z,99244.24
2023-06-16T16:23:58.957Z,99247.08
2023-06-16T16:26:26.010Z,99247.75
2023-06-16T16:28:52.982Z,99250.67
2023-06-16T16:31:21.382Z,99251.27
2023-06-16T16:33:48.798Z,99252.45
2023-06-16T16:36:16.698Z,99252.08
2023-06-16T16:38:44.221Z,99253.69
2023-06-16T16:41:11.002Z,99253.02
2023-06-16T16:43:38.385Z,99251.13
2023-06-16T16:46:05.704Z,99249.06
2023-06-16T16:48:33.029Z,99251.79
2023-06-16T16:51:00.208Z,99247.84
2023-06-16T16:53:28.028Z,99247.84
2023-06-16T16:55:55.059Z,99251.44
2023-06-16T16:58:23.033Z,99249.03
2023-06-16T17:00:50.185Z,99249.49
2023-06-16T17:03:17.079Z,99250.58
2023-06-16T17:05:44.559Z,99249.27
2023-06-16T17:08:11.828Z,99249.20
2023-06-16T17:10:38.619Z,99249.13
2023-06-16T17:13:18.149Z,99247.73
2023-06-16T17:17:35.931Z,99240.36
2023-06-16T17:20:05.590Z,99241.72
2023-06-16T17:22:33.081Z,99240.84
2023-06-16T17:25:01.365Z,99240.36
2023-06-16T17:27:30.888Z,99241.39
2023-06-16T17:30:02.258Z,99242.63
2023-06-16T17:32:29.806Z,99246.12
2023-06-16T17:34:59.747Z,99243.29
2023-06-16T17:37:30.340Z,99240.85
2023-06-16T17:39:59.189Z,99246.52
2023-06-16T17:42:29.501Z,99249.47
2023-06-16T17:44:58.707Z,99245.65
2023-06-16T17:47:31.594Z,99242.34
2023-06-16T17:50:01.598Z,99244.91
2023-06-16T17:52:29.909Z,99244.31
2023-06-16T17:54:59.310Z,99243.42
2023-06-16T17:57:27.137Z,99247.10
2023-06-16T17:59:57.441Z,99246.11
2023-06-16T18:02:25.873Z,99247.95
2023-06-16T18:04:53.904Z,99244.57
2023-06-16T18:07:22.267Z,99248.02
2023-06-16T18:09:49.781Z,99245.29
2023-06-16T18:12:17.421Z,99256.55
2023-06-16T18:14:45.271Z,99258.98
2023-06-16T18:17:12.962Z,99261.30
2023-06-16T18:19:40.836Z,99266.80
2023-06-16T18:22:08.258Z,99271.17
2023-06-16T18:24:38.411Z,99270.27
2023-06-16T18:27:06.125Z,99272.80
2023-06-16T18:29:36.199Z,99278.83
2023-06-16T18:32:03.977Z,99282.55
2023-06-16T18:34:32.289Z,99282.83
2023-06-16T18:37:01.624Z,99289.60
2023-06-16T18:39:34.666Z,99296.04
2023-06-16T18:42:03.568Z,99294.63
2023-06-16T18:44:31.498Z,99297.41
2023-06-16T18:47:00.695Z,99296.34
2023-06-16T18:49:28.322Z,99298.75
2023-06-16T18:51:57.553Z,99298.39
2023-06-16T18:54:25.663Z,99295.80
2023-06-16T18:56:53.456Z,99300.91
2023-06-16T18:59:20.928Z,99297.44
2023-06-16T19:01:48.696Z,99301.28
2023-06-16T19:04:17.168Z,99301.67
2023-06-16T19:06:44.889Z,99302.06
2023-06-16T19:09:15.048Z,99301.52
2023-06-16T19:11:42.962Z,99300.61
2023-06-16T19:14:10.399Z,99301.97
2023-06-16T19:16:38.123Z,99299.04
2023-06-16T19:19:05.879Z,99301.17
2023-06-16T19:21:33.857Z,99299.98
2023-06-16T19:24:01.747Z,99299.59
2023-06-16T19:26:29.415Z,99298.45
2023-06-16T19:28:57.091Z,99298.74
2023-06-16T19:31:27.132Z,99297.65
2023-06-16T19:33:55.262Z,99298.48
2023-06-16T19:36:23.187Z,99298.69
2023-06-16T19:38:53.892Z,99294.71
2023-06-16T19:41:21.721Z,99297.54
2023-06-16T19:43:49.247Z,99296.51
2023-06-16T19:46:19.094Z,99299.41
2023-06-16T19:48:47.566Z,99295.06
2023-06-16T19:51:15.337Z,99297.28
2023-06-16T19:53:42.823Z,99300.33
2023-06-16T19:56:10.572Z,99303.08
2023-06-16T19:58:38.001Z,99305.84
2023-06-16T20:01:06.056Z,99306.95
2023-06-16T20:03:33.961Z,99300.92
2023-06-16T20:06:01.728Z,99299.20
2023-06-16T20:08:29.308Z,99302.17
2023-06-16T20:10:56.838Z,99301.10
2023-06-16T20:13:24.362Z,99304.83
2023-06-16T20:15:51.831Z,99304.23
2023-06-16T20:18:19.733Z,99304.96
2023-06-16T20:20:50.259Z,99299.31
2023-06-16T20:23:18.538Z,99300.41
2023-06-16T20:25:46.557Z,99300.52
2023-06-16T20:28:14.316Z,99296.69
2023-06-16T20:30:42.076Z,99294.61
2023-06-16T20:33:10.484Z,99296.50
2023-06-16T20:35:38.317Z,99297.45
2023-06-16T20:38:05.957Z,99296.98
2023-06-16T20:40:34.555Z,99293.23
2023-06-16T20:43:04.383Z,99298.83
2023-06-16T20:45:32.494Z,99301.08
2023-06-16T20:48:00.088Z,99298.30
2023-06-16T20:50:28.705Z,99301.27
2023-06-16T20:52:58.267Z,99302.96
2023-06-16T20:55:25.816Z,99298.98
2023-06-16T20:57:58.027Z,99299.63
2023-06-16T21:00:30.303Z,99296.82
2023-06-16T21:02:58.829Z,99297.57
2023-06-16T21:05:26.654Z,99298.73
2023-06-16T21:07:58.495Z,99297.02
2023-06-16T21:10:28.725Z,99300.81
2023-06-16T21:12:56.208Z,99299.64
2023-06-16T21:15:23.849Z,99296.69
2023-06-16T21:17:51.368Z,99294.58
2023-06-16T21:20:20.539Z,99295.20
2023-06-16T21:22:52.366Z,99303.11
2023-06-16T21:25:19.884Z,99303.41
2023-06-16T21:27:47.493Z,99299.39
2023-06-16T21:30:15.017Z,99301.10
2023-06-16T21:32:42.634Z,99300.05
2023-06-16T21:35:11.916Z,99296.63
2023-06-16T21:37:41.974Z,99297.41
2023-06-16T21:40:11.707Z,99297.82
2023-06-16T21:42:40.924Z,99294.89
2023-06-16T21:45:09.439Z,99297.45
2023-06-16T21:47:37.029Z,99299.34
2023-06-16T21:50:05.549Z,99299.64
2023-06-16T21:52:32.964Z,99293.70
2023-06-16T21:55:01.814Z,99296.25
2023-06-16T21:57:29.768Z,99295.02
2023-06-16T21:59:57.953Z,99294.21
2023-06-16T22:02:26.170Z,99292.64
2023-06-16T22:04:53.758Z,99290.56
2023-06-16T22:07:22.159Z,99287.92
2023-06-16T22:09:52.214Z,99290.03
2023-06-16T22:12:19.988Z,99290.77
2023-06-16T22:14:47.782Z,99290.70
2023-06-16T22:17:15.720Z,99288.42
2023-06-16T22:19:44.164Z,99289.52
2023-06-16T22:22:12.379Z,99286.73
2023-06-16T22:24:42.536Z,99285.91
2023-06-16T22:29:41.033Z,99288.55
2023-06-16T22:32:08.780Z,99287.50
2023-06-16T22:34:36.455Z,99289.95
2023-06-16T22:37:04.276Z,99290.47
2023-06-16T22:39:31.728Z,99295.09
2023-06-16T22:42:00.255Z,99295.01
2023-06-16T22:44:27.668Z,99292.34
2023-06-16T22:46:57.572Z,99288.44
2023-06-16T22:49:25.583Z,99284.37
2023-06-16T22:51:54.601Z,99279.98
2023-06-16T22:54:22.045Z,99281.33
2023-06-16T22:56:49.543Z,99277.80
2023-06-16T22:59:17.055Z,99276.48
2023-06-16T23:01:44.549Z,99275.06
2023-06-16T23:04:12.200Z,99275.05
2023-06-16T23:06:40.414Z,99273.81
2023-06-16T23:09:07.999Z,99276.25
2023-06-16T23:11:35.541Z,99275.89
2023-06-16T23:14:03.663Z,99277.12
2023-06-16T23:16:31.269Z,99278.44
2023-06-16T23:18:58.949Z,99277.64
2023-06-16T23:21:27.846Z,99276.70
2023-06-16T23:23:56.501Z,99277.84
2023-06-16T23:26:24.344Z,99275.01
2023-06-16T23:28:51.874Z,99280.23
2023-06-16T23:31:20.446Z,99280.66
2023-06-16T23:33:48.548Z,99277.27
2023-06-16T23:36:19.179Z,99275.15
2023-06-16T23:38:46.697Z,99278.54
2023-06-16T23:41:14.400Z,99275.79
2023-06-16T23:43:41.918Z,99276.36
2023-06-16T23:46:09.433Z,99272.39
2023-06-16T23:48:36.900Z,99271.67
2023-06-16T23:51:04.353Z,99269.50
2023-06-16T23:53:32.613Z,99264.38
2023-06-16T23:56:00.209Z,99266.66
2023-06-16T23:58:29.393Z,99266.90
